sensor_id;sensor_type;location;lat;lon;timestamp;temperature;humidity
27306;DHT22;14792;50.886;6.468;2022-09-17T00:00:38;9.30;99.90
27306;DHT22;14792;50.886;6.468;2022-09-17T00:03:39;9.30;99.90
27306;DHT22;14792;50.886;6.468;2022-09-17T00:06:41;9.40;99.90
27306;DHT22;14792;50.886;6.468;2022-09-17T00:09:43;9.40;99.90
27306;DHT22;14792;50.886;6.468;2022-09-17T00:12:44;9.50;99.90
27306;DHT22;14792;50.886;6.468;2022-09-17T00:15:46;9.50;99.90
27306;DHT22;14792;50.886;6.468;2022-09-17T00:18:47;9.50;99.90
27306;DHT22;14792;50.886;6.468;2022-09-17T00:21:49;9.50;99.90
27306;DHT22;14792;50.886;6.468;2022-09-17T00:24:51;9.70;99.90
27306;DHT22;14792;50.886;6.468;2022-09-17T00:27:52;9.60;99.90
27306;DHT22;14792;50.886;6.468;2022-09-17T00:30:54;9.70;99.90
27306;DHT22;14792;50.886;6.468;2022-09-17T00:33:56;9.70;99.90
27306;DHT22;14792;50.886;6.468;2022-09-17T00:36:57;9.70;99.90
27306;DHT22;14792;50.886;6.468;2022-09-17T00:39:58;9.70;99.90
27306;DHT22;14792;50.886;6.468;2022-09-17T00:43:00;9.70;99.90
27306;DHT22;14792;50.886;6.468;2022-09-17T00:46:02;9.80;99.90
27306;DHT22;14792;50.886;6.468;2022-09-17T00:49:10;9.80;99.90
27306;DHT22;14792;50.886;6.468;2022-09-17T00:52:09;9.80;99.90
27306;DHT22;14792;50.886;6.468;2022-09-17T00:55:11;9.80;99.90
27306;DHT22;14792;50.886;6.468;2022-09-17T00:58:11;9.80;99.90
27306;DHT22;14792;50.886;6.468;2022-09-17T01:01:12;9.80;99.90
27306;DHT22;14792;50.886;6.468;2022-09-17T01:04:18;9.70;99.90
27306;DHT22;14792;50.886;6.468;2022-09-17T01:07:27;9.70;99.90
27306;DHT22;14792;50.886;6.468;2022-09-17T01:10:38;9.70;99.90
27306;DHT22;14792;50.886;6.468;2022-09-17T01:16:35;9.70;99.90
27306;DHT22;14792;50.886;6.468;2022-09-17T01:33:17;9.70;99.90
27306;DHT22;14792;50.886;6.468;2022-09-17T01:40:04;9.80;99.90
27306;DHT22;14792;50.886;6.468;2022-09-17T01:42:27;9.80;99.90
27306;DHT22;14792;50.886;6.468;2022-09-17T01:45:46;9.80;99.90
27306;DHT22;14792;50.886;6.468;2022-09-17T01:48:44;9.80;99.90
27306;DHT22;14792;50.886;6.468;2022-09-17T01:51:45;9.80;99.90
27306;DHT22;14792;50.886;6.468;2022-09-17T01:54:46;9.70;99.90
27306;DHT22;14792;50.886;6.468;2022-09-17T01:57:54;9.70;99.90
27306;DHT22;14792;50.886;6.468;2022-09-17T02:00:56;9.70;99.90
27306;DHT22;14792;50.886;6.468;2022-09-17T02:04:08;9.70;99.90
27306;DHT22;14792;50.886;6.468;2022-09-17T02:07:11;9.70;99.90
27306;DHT22;14792;50.886;6.468;2022-09-17T02:10:15;9.70;99.90
27306;DHT22;14792;50.886;6.468;2022-09-17T02:13:17;9.70;99.90
27306;DHT22;14792;50.886;6.468;2022-09-17T02:16:36;9.60;99.90
27306;DHT22;14792;50.886;6.468;2022-09-17T02:19:34;9.60;99.90
27306;DHT22;14792;50.886;6.468;2022-09-17T02:22:36;9.70;99.90
27306;DHT22;14792;50.886;6.468;2022-09-17T02:25:46;9.70;99.90
27306;DHT22;14792;50.886;6.468;2022-09-17T02:28:48;9.70;99.90
27306;DHT22;14792;50.886;6.468;2022-09-17T02:31:48;9.70;99.90
27306;DHT22;14792;50.886;6.468;2022-09-17T02:34:50;9.70;99.90
27306;DHT22;14792;50.886;6.468;2022-09-17T02:37:51;9.70;99.90
27306;DHT22;14792;50.886;6.468;2022-09-17T02:57:39;9.90;99.90
27306;DHT22;14792;50.886;6.468;2022-09-17T03:00:39;9.90;99.90
27306;DHT22;14792;50.886;6.468;2022-09-17T03:03:41;9.90;99.90
27306;DHT22;14792;50.886;6.468;2022-09-17T03:06:44;9.90;99.90
27306;DHT22;14792;50.886;6.468;2022-09-17T03:09:43;9.90;99.90
27306;DHT22;14792;50.886;6.468;2022-09-17T03:12:45;9.90;99.90
27306;DHT22;14792;50.886;6.468;2022-09-17T03:15:47;9.90;99.90
27306;DHT22;14792;50.886;6.468;2022-09-17T03:18:48;9.90;99.90
27306;DHT22;14792;50.886;6.468;2022-09-17T03:21:50;9.90;99.90
27306;DHT22;14792;50.886;6.468;2022-09-17T03:24:51;10.00;99.90
27306;DHT22;14792;50.886;6.468;2022-09-17T03:27:53;10.00;99.90
27306;DHT22;14792;50.886;6.468;2022-09-17T03:30:54;10.00;99.90
27306;DHT22;14792;50.886;6.468;2022-09-17T03:33:56;10.00;99.90
27306;DHT22;14792;50.886;6.468;2022-09-17T03:36:58;10.00;99.90
27306;DHT22;14792;50.886;6.468;2022-09-17T03:39:59;10.00;99.90
27306;DHT22;14792;50.886;6.468;2022-09-17T03:43:01;9.90;99.90
27306;DHT22;14792;50.886;6.468;2022-09-17T03:46:02;9.90;99.90
27306;DHT22;14792;50.886;6.468;2022-09-17T03:49:04;9.90;99.90
27306;DHT22;14792;50.886;6.468;2022-09-17T03:52:06;9.90;99.90
27306;DHT22;14792;50.886;6.468;2022-09-17T03:55:07;9.80;99.90
27306;DHT22;14792;50.886;6.468;2022-09-17T03:58:09;9.80;99.90
27306;DHT22;14792;50.886;6.468;2022-09-17T04:01:10;9.80;99.90
27306;DHT22;14792;50.886;6.468;2022-09-17T04:04:12;9.80;99.90
27306;DHT22;14792;50.886;6.468;2022-09-17T04:07:13;9.80;99.90
27306;DHT22;14792;50.886;6.468;2022-09-17T04:10:15;9.70;99.90
27306;DHT22;14792;50.886;6.468;2022-09-17T04:13:17;9.70;99.90
27306;DHT22;14792;50.886;6.468;2022-09-17T04:16:18;9.70;99.90
27306;DHT22;14792;50.886;6.468;2022-09-17T04:19:20;9.70;99.90
27306;DHT22;14792;50.886;6.468;2022-09-17T04:22:21;9.60;99.90
27306;DHT22;14792;50.886;6.468;2022-09-17T04:25:23;9.60;99.90
27306;DHT22;14792;50.886;6.468;2022-09-17T04:28:25;9.60;99.90
27306;DHT22;14792;50.886;6.468;2022-09-17T04:31:26;9.60;99.90
27306;DHT22;14792;50.886;6.468;2022-09-17T04:34:28;9.50;99.90
27306;DHT22;14792;50.886;6.468;2022-09-17T04:37:29;9.50;99.90
27306;DHT22;14792;50.886;6.468;2022-09-17T04:40:31;9.50;99.90
27306;DHT22;14792;50.886;6.468;2022-09-17T04:43:33;9.50;99.90
27306;DHT22;14792;50.886;6.468;2022-09-17T04:46:34;9.50;99.90
27306;DHT22;14792;50.886;6.468;2022-09-17T04:49:36;9.50;99.90
27306;DHT22;14792;50.886;6.468;2022-09-17T04:52:41;9.40;99.90
27306;DHT22;14792;50.886;6.468;2022-09-17T04:55:42;9.40;99.90
27306;DHT22;14792;50.886;6.468;2022-09-17T04:58:40;9.50;99.90
27306;DHT22;14792;50.886;6.468;2022-09-17T05:01:42;9.50;99.90
27306;DHT22;14792;50.886;6.468;2022-09-17T05:04:44;9.50;99.90
27306;DHT22;14792;50.886;6.468;2022-09-17T05:07:46;9.50;99.90
27306;DHT22;14792;50.886;6.468;2022-09-17T05:10:48;9.50;99.90
27306;DHT22;14792;50.886;6.468;2022-09-17T05:13:48;9.50;99.90
27306;DHT22;14792;50.886;6.468;2022-09-17T05:16:50;9.60;99.90
27306;DHT22;14792;50.886;6.468;2022-09-17T05:19:52;9.60;99.90
27306;DHT22;14792;50.886;6.468;2022-09-17T05:22:56;9.50;99.90
27306;DHT22;14792;50.886;6.468;2022-09-17T05:25:58;9.60;99.90
27306;DHT22;14792;50.886;6.468;2022-09-17T05:28:59;9.60;99.90
27306;DHT22;14792;50.886;6.468;2022-09-17T05:32:01;9.70;99.90
27306;DHT22;14792;50.886;6.468;2022-09-17T05:35:02;9.70;99.90
27306;DHT22;14792;50.886;6.468;2022-09-17T05:38:04;9.80;99.90
27306;DHT22;14792;50.886;6.468;2022-09-17T05:41:05;9.80;99.90
27306;DHT22;14792;50.886;6.468;2022-09-17T05:44:07;9.90;99.90
27306;DHT22;14792;50.886;6.468;2022-09-17T05:47:09;9.90;99.90
27306;DHT22;14792;50.886;6.468;2022-09-17T05:50:10;10.00;99.90
27306;DHT22;14792;50.886;6.468;2022-09-17T05:53:12;10.10;99.90
27306;DHT22;14792;50.886;6.468;2022-09-17T05:56:13;10.20;99.90
27306;DHT22;14792;50.886;6.468;2022-09-17T05:59:15;10.40;99.90
27306;DHT22;14792;50.886;6.468;2022-09-17T06:02:17;10.50;99.90
27306;DHT22;14792;50.886;6.468;2022-09-17T06:05:18;10.50;99.90
27306;DHT22;14792;50.886;6.468;2022-09-17T06:08:20;10.60;99.90
27306;DHT22;14792;50.886;6.468;2022-09-17T06:11:21;10.50;99.90
27306;DHT22;14792;50.886;6.468;2022-09-17T06:14:23;10.60;99.90
27306;DHT22;14792;50.886;6.468;2022-09-17T06:17:25;10.60;99.90
27306;DHT22;14792;50.886;6.468;2022-09-17T06:20:26;10.60;99.90
27306;DHT22;14792;50.886;6.468;2022-09-17T06:23:30;10.60;99.90
27306;DHT22;14792;50.886;6.468;2022-09-17T06:26:32;10.70;99.90
27306;DHT22;14792;50.886;6.468;2022-09-17T06:29:33;10.70;99.90
27306;DHT22;14792;50.886;6.468;2022-09-17T06:32:35;10.70;99.90
27306;DHT22;14792;50.886;6.468;2022-09-17T06:35:36;10.70;99.90
27306;DHT22;14792;50.886;6.468;2022-09-17T06:38:38;10.70;99.90
27306;DHT22;14792;50.886;6.468;2022-09-17T06:41:42;10.60;99.90
27306;DHT22;14792;50.886;6.468;2022-09-17T06:44:44;10.70;99.90
27306;DHT22;14792;50.886;6.468;2022-09-17T06:47:46;10.60;99.90
27306;DHT22;14792;50.886;6.468;2022-09-17T06:50:47;10.60;99.90
27306;DHT22;14792;50.886;6.468;2022-09-17T06:53:49;10.60;99.90
27306;DHT22;14792;50.886;6.468;2022-09-17T06:56:51;10.70;99.90
27306;DHT22;14792;50.886;6.468;2022-09-17T06:59:52;10.90;99.90
27306;DHT22;14792;50.886;6.468;2022-09-17T07:02:57;10.90;99.90
27306;DHT22;14792;50.886;6.468;2022-09-17T07:05:56;11.00;99.90
27306;DHT22;14792;50.886;6.468;2022-09-17T07:08:57;11.10;99.90
27306;DHT22;14792;50.886;6.468;2022-09-17T07:11:59;11.20;99.90
27306;DHT22;14792;50.886;6.468;2022-09-17T07:15:00;11.20;99.90
27306;DHT22;14792;50.886;6.468;2022-09-17T07:18:08;11.40;99.90
27306;DHT22;14792;50.886;6.468;2022-09-17T07:21:09;11.50;99.90
27306;DHT22;14792;50.886;6.468;2022-09-17T07:24:10;11.50;99.90
27306;DHT22;14792;50.886;6.468;2022-09-17T07:27:12;11.50;99.90
27306;DHT22;14792;50.886;6.468;2022-09-17T07:30:14;11.70;99.90
27306;DHT22;14792;50.886;6.468;2022-09-17T07:33:16;11.90;99.90
27306;DHT22;14792;50.886;6.468;2022-09-17T07:36:17;12.20;99.90
27306;DHT22;14792;50.886;6.468;2022-09-17T07:39:19;12.40;99.90
27306;DHT22;14792;50.886;6.468;2022-09-17T07:42:20;12.40;99.90
27306;DHT22;14792;50.886;6.468;2022-09-17T07:45:22;12.50;99.90
27306;DHT22;14792;50.886;6.468;2022-09-17T07:48:23;12.80;99.90
27306;DHT22;14792;50.886;6.468;2022-09-17T07:51:25;13.00;99.90
27306;DHT22;14792;50.886;6.468;2022-09-17T07:54:27;13.20;99.90
27306;DHT22;14792;50.886;6.468;2022-09-17T07:57:28;13.40;99.90
27306;DHT22;14792;50.886;6.468;2022-09-17T08:00:30;13.50;99.90
27306;DHT22;14792;50.886;6.468;2022-09-17T08:03:31;13.50;99.90
27306;DHT22;14792;50.886;6.468;2022-09-17T08:06:35;13.20;99.90
27306;DHT22;14792;50.886;6.468;2022-09-17T08:09:34;13.10;99.90
27306;DHT22;14792;50.886;6.468;2022-09-17T08:12:36;13.10;99.90
27306;DHT22;14792;50.886;6.468;2022-09-17T08:15:38;12.90;99.90
27306;DHT22;14792;50.886;6.468;2022-09-17T08:18:40;12.80;99.90
27306;DHT22;14792;50.886;6.468;2022-09-17T08:21:41;12.80;99.90
27306;DHT22;14792;50.886;6.468;2022-09-17T08:24:42;12.80;99.90
27306;DHT22;14792;50.886;6.468;2022-09-17T08:27:44;12.90;99.90
27306;DHT22;14792;50.886;6.468;2022-09-17T08:30:46;12.90;99.90
27306;DHT22;14792;50.886;6.468;2022-09-17T08:33:47;13.00;99.90
27306;DHT22;14792;50.886;6.468;2022-09-17T08:36:49;13.00;99.90
27306;DHT22;14792;50.886;6.468;2022-09-17T08:39:51;13.00;99.90
27306;DHT22;14792;50.886;6.468;2022-09-17T08:42:58;13.00;99.90
27306;DHT22;14792;50.886;6.468;2022-09-17T08:45:57;13.20;99.90
27306;DHT22;14792;50.886;6.468;2022-09-17T08:55:42;13.60;99.90
27306;DHT22;14792;50.886;6.468;2022-09-17T08:58:55;13.80;99.90
27306;DHT22;14792;50.886;6.468;2022-09-17T09:01:58;14.00;99.90
27306;DHT22;14792;50.886;6.468;2022-09-17T09:08:09;14.00;99.90
27306;DHT22;14792;50.886;6.468;2022-09-17T09:11:12;14.00;99.90
27306;DHT22;14792;50.886;6.468;2022-09-17T09:17:20;14.00;99.90
27306;DHT22;14792;50.886;6.468;2022-09-17T09:20:27;14.20;99.90
27306;DHT22;14792;50.886;6.468;2022-09-17T09:23:52;14.40;99.90
27306;DHT22;14792;50.886;6.468;2022-09-17T09:27:13;14.50;99.90
27306;DHT22;14792;50.886;6.468;2022-09-17T09:30:13;14.50;99.90
27306;DHT22;14792;50.886;6.468;2022-09-17T09:33:15;14.30;99.90
27306;DHT22;14792;50.886;6.468;2022-09-17T09:36:16;14.40;99.90
27306;DHT22;14792;50.886;6.468;2022-09-17T09:39:23;14.50;99.90
27306;DHT22;14792;50.886;6.468;2022-09-17T09:42:33;14.40;99.90
27306;DHT22;14792;50.886;6.468;2022-09-17T09:45:42;14.40;99.90
27306;DHT22;14792;50.886;6.468;2022-09-17T09:52:12;14.50;99.90
27306;DHT22;14792;50.886;6.468;2022-09-17T09:55:41;14.40;99.90
27306;DHT22;14792;50.886;6.468;2022-09-17T09:58:38;14.50;99.90
27306;DHT22;14792;50.886;6.468;2022-09-17T10:01:40;14.50;99.90
27306;DHT22;14792;50.886;6.468;2022-09-17T10:04:41;14.50;99.90
27306;DHT22;14792;50.886;6.468;2022-09-17T10:07:43;14.50;99.90
27306;DHT22;14792;50.886;6.468;2022-09-17T10:11:00;14.60;99.90
27306;DHT22;14792;50.886;6.468;2022-09-17T10:14:23;14.50;99.90
27306;DHT22;14792;50.886;6.468;2022-09-17T10:17:24;14.40;99.90
27306;DHT22;14792;50.886;6.468;2022-09-17T10:20:25;14.50;99.90
27306;DHT22;14792;50.886;6.468;2022-09-17T10:23:28;14.40;99.90
27306;DHT22;14792;50.886;6.468;2022-09-17T10:26:32;14.20;99.90
27306;DHT22;14792;50.886;6.468;2022-09-17T10:29:33;14.10;99.90
27306;DHT22;14792;50.886;6.468;2022-09-17T10:32:34;13.80;99.90
27306;DHT22;14792;50.886;6.468;2022-09-17T10:35:36;13.70;99.90
27306;DHT22;14792;50.886;6.468;2022-09-17T10:38:44;13.60;99.90
27306;DHT22;14792;50.886;6.468;2022-09-17T10:44:58;13.50;99.90
27306;DHT22;14792;50.886;6.468;2022-09-17T10:47:59;13.40;99.90
27306;DHT22;14792;50.886;6.468;2022-09-17T10:51:01;13.70;99.90
27306;DHT22;14792;50.886;6.468;2022-09-17T10:57:15;13.90;99.90
27306;DHT22;14792;50.886;6.468;2022-09-17T11:00:18;14.10;99.90
27306;DHT22;14792;50.886;6.468;2022-09-17T11:06:42;14.30;99.90
27306;DHT22;14792;50.886;6.468;2022-09-17T11:10:02;14.50;99.90
27306;DHT22;14792;50.886;6.468;2022-09-17T11:16:35;14.50;99.90
27306;DHT22;14792;50.886;6.468;2022-09-17T11:19:37;14.60;99.90
27306;DHT22;14792;50.886;6.468;2022-09-17T11:25:51;14.40;99.90
27306;DHT22;14792;50.886;6.468;2022-09-17T11:29:15;14.30;99.90
27306;DHT22;14792;50.886;6.468;2022-09-17T11:32:33;14.20;99.90
27306;DHT22;14792;50.886;6.468;2022-09-17T11:35:40;14.10;99.90
27306;DHT22;14792;50.886;6.468;2022-09-17T11:38:39;14.10;99.90
27306;DHT22;14792;50.886;6.468;2022-09-17T11:41:40;14.30;99.90
27306;DHT22;14792;50.886;6.468;2022-09-17T11:44:50;14.50;99.90
27306;DHT22;14792;50.886;6.468;2022-09-17T11:51:45;14.30;99.90
27306;DHT22;14792;50.886;6.468;2022-09-17T11:54:20;14.00;99.90
27306;DHT22;14792;50.886;6.468;2022-09-17T11:57:21;13.30;99.90
27306;DHT22;14792;50.886;6.468;2022-09-17T12:00:21;12.90;99.90
27306;DHT22;14792;50.886;6.468;2022-09-17T12:03:29;12.80;99.90
27306;DHT22;14792;50.886;6.468;2022-09-17T12:06:43;12.90;99.90
27306;DHT22;14792;50.886;6.468;2022-09-17T12:09:37;13.10;99.90
27306;DHT22;14792;50.886;6.468;2022-09-17T12:12:41;13.20;99.90
27306;DHT22;14792;50.886;6.468;2022-09-17T12:15:41;13.20;99.90
27306;DHT22;14792;50.886;6.468;2022-09-17T12:22:00;13.30;99.90
27306;DHT22;14792;50.886;6.468;2022-09-17T12:25:01;13.70;99.90
27306;DHT22;14792;50.886;6.468;2022-09-17T12:28:06;13.80;99.90
27306;DHT22;14792;50.886;6.468;2022-09-17T12:31:13;13.70;99.90
27306;DHT22;14792;50.886;6.468;2022-09-17T12:34:37;13.80;99.90
27306;DHT22;14792;50.886;6.468;2022-09-17T12:48:30;14.10;99.90
27306;DHT22;14792;50.886;6.468;2022-09-17T12:54:49;14.10;99.90
27306;DHT22;14792;50.886;6.468;2022-09-17T13:14:20;14.00;99.90
27306;DHT22;14792;50.886;6.468;2022-09-17T13:20:58;14.40;99.90
27306;DHT22;14792;50.886;6.468;2022-09-17T13:23:59;14.70;99.90
27306;DHT22;14792;50.886;6.468;2022-09-17T13:27:01;14.30;99.90
27306;DHT22;14792;50.886;6.468;2022-09-17T13:30:05;13.90;99.90
27306;DHT22;14792;50.886;6.468;2022-09-17T13:33:03;14.10;99.90
27306;DHT22;14792;50.886;6.468;2022-09-17T13:36:11;14.50;99.90
27306;DHT22;14792;50.886;6.468;2022-09-17T13:39:11;15.00;99.90
27306;DHT22;14792;50.886;6.468;2022-09-17T13:42:13;15.10;99.90
27306;DHT22;14792;50.886;6.468;2022-09-17T13:45:14;15.20;99.90
27306;DHT22;14792;50.886;6.468;2022-09-17T13:48:17;15.40;99.90
27306;DHT22;14792;50.886;6.468;2022-09-17T13:54:36;15.40;99.90
27306;DHT22;14792;50.886;6.468;2022-09-17T13:57:44;15.70;99.90
27306;DHT22;14792;50.886;6.468;2022-09-17T14:00:54;15.50;99.90
27306;DHT22;14792;50.886;6.468;2022-09-17T14:03:55;15.50;99.90
27306;DHT22;14792;50.886;6.468;2022-09-17T14:06:57;15.60;99.90
27306;DHT22;14792;50.886;6.468;2022-09-17T14:10:26;15.40;99.90
27306;DHT22;14792;50.886;6.468;2022-09-17T14:19:47;15.80;99.90
27306;DHT22;14792;50.886;6.468;2022-09-17T14:22:58;15.60;99.90
27306;DHT22;14792;50.886;6.468;2022-09-17T14:25:59;15.90;99.90
27306;DHT22;14792;50.886;6.468;2022-09-17T14:29:06;15.90;99.90
27306;DHT22;14792;50.886;6.468;2022-09-17T14:32:05;16.10;99.90
27306;DHT22;14792;50.886;6.468;2022-09-17T14:38:26;15.90;99.90
27306;DHT22;14792;50.886;6.468;2022-09-17T14:41:25;15.70;99.90
27306;DHT22;14792;50.886;6.468;2022-09-17T14:44:26;15.80;99.90
27306;DHT22;14792;50.886;6.468;2022-09-17T14:47:27;15.70;99.90
27306;DHT22;14792;50.886;6.468;2022-09-17T14:50:29;15.80;99.90
27306;DHT22;14792;50.886;6.468;2022-09-17T14:53:30;16.00;99.90
27306;DHT22;14792;50.886;6.468;2022-09-17T14:56:51;16.10;99.90
27306;DHT22;14792;50.886;6.468;2022-09-17T14:59:54;16.30;99.90
27306;DHT22;14792;50.886;6.468;2022-09-17T15:02:56;16.30;99.90
27306;DHT22;14792;50.886;6.468;2022-09-17T15:06:00;16.30;99.90
27306;DHT22;14792;50.886;6.468;2022-09-17T15:09:02;15.80;99.90
27306;DHT22;14792;50.886;6.468;2022-09-17T15:12:03;15.70;99.90
27306;DHT22;14792;50.886;6.468;2022-09-17T15:15:05;15.80;99.90
27306;DHT22;14792;50.886;6.468;2022-09-17T15:18:11;15.70;99.90
27306;DHT22;14792;50.886;6.468;2022-09-17T15:21:16;15.90;99.90
27306;DHT22;14792;50.886;6.468;2022-09-17T15:27:41;15.80;99.90
27306;DHT22;14792;50.886;6.468;2022-09-17T15:30:42;15.90;99.90
27306;DHT22;14792;50.886;6.468;2022-09-17T15:33:44;15.80;99.90
27306;DHT22;14792;50.886;6.468;2022-09-17T15:40:27;16.00;99.90
27306;DHT22;14792;50.886;6.468;2022-09-17T15:43:31;16.10;99.90
27306;DHT22;14792;50.886;6.468;2022-09-17T15:46:32;16.00;99.90
27306;DHT22;14792;50.886;6.468;2022-09-17T15:49:34;15.70;99.90
27306;DHT22;14792;50.886;6.468;2022-09-17T15:52:35;15.30;99.90
27306;DHT22;14792;50.886;6.468;2022-09-17T15:55:40;15.20;99.90
27306;DHT22;14792;50.886;6.468;2022-09-17T16:04:44;15.30;99.90
27306;DHT22;14792;50.886;6.468;2022-09-17T16:07:46;15.20;99.90
27306;DHT22;14792;50.886;6.468;2022-09-17T16:10:48;15.10;99.90
27306;DHT22;14792;50.886;6.468;2022-09-17T16:13:49;14.80;99.90
27306;DHT22;14792;50.886;6.468;2022-09-17T16:16:51;14.50;99.90
27306;DHT22;14792;50.886;6.468;2022-09-17T16:19:55;14.40;99.90
27306;DHT22;14792;50.886;6.468;2022-09-17T16:22:54;14.30;99.90
27306;DHT22;14792;50.886;6.468;2022-09-17T16:25:55;14.30;99.90
27306;DHT22;14792;50.886;6.468;2022-09-17T16:28:58;14.30;99.90
27306;DHT22;14792;50.886;6.468;2022-09-17T16:31:59;14.30;99.90
27306;DHT22;14792;50.886;6.468;2022-09-17T16:35:00;14.20;99.90
27306;DHT22;14792;50.886;6.468;2022-09-17T16:38:02;14.20;99.90
27306;DHT22;14792;50.886;6.468;2022-09-17T16:41:04;14.20;99.90
27306;DHT22;14792;50.886;6.468;2022-09-17T16:44:05;14.00;99.90
27306;DHT22;14792;50.886;6.468;2022-09-17T16:47:06;13.80;99.90
27306;DHT22;14792;50.886;6.468;2022-09-17T16:50:09;13.70;99.90
27306;DHT22;14792;50.886;6.468;2022-09-17T16:53:10;13.60;99.90
27306;DHT22;14792;50.886;6.468;2022-09-17T16:56:12;13.60;99.90
27306;DHT22;14792;50.886;6.468;2022-09-17T16:59:13;13.50;99.90
27306;DHT22;14792;50.886;6.468;2022-09-17T17:02:15;13.50;99.90
27306;DHT22;14792;50.886;6.468;2022-09-17T17:05:16;13.40;99.90
27306;DHT22;14792;50.886;6.468;2022-09-17T17:08:18;13.40;99.90
27306;DHT22;14792;50.886;6.468;2022-09-17T17:11:19;13.40;99.90
27306;DHT22;14792;50.886;6.468;2022-09-17T17:14:21;13.40;99.90
27306;DHT22;14792;50.886;6.468;2022-09-17T17:17:23;13.30;99.90
27306;DHT22;14792;50.886;6.468;2022-09-17T17:20:24;13.30;99.90
27306;DHT22;14792;50.886;6.468;2022-09-17T17:23:26;13.30;99.90
27306;DHT22;14792;50.886;6.468;2022-09-17T17:26:27;13.20;99.90
27306;DHT22;14792;50.886;6.468;2022-09-17T17:29:29;13.20;99.90
27306;DHT22;14792;50.886;6.468;2022-09-17T17:32:34;13.10;99.90
27306;DHT22;14792;50.886;6.468;2022-09-17T17:35:32;13.10;99.90
27306;DHT22;14792;50.886;6.468;2022-09-17T17:38:34;13.10;99.90
27306;DHT22;14792;50.886;6.468;2022-09-17T17:41:35;13.00;99.90
27306;DHT22;14792;50.886;6.468;2022-09-17T17:44:37;13.00;99.90
27306;DHT22;14792;50.886;6.468;2022-09-17T17:47:38;13.00;99.90
27306;DHT22;14792;50.886;6.468;2022-09-17T17:50:40;12.90;99.90
27306;DHT22;14792;50.886;6.468;2022-09-17T17:53:42;12.90;99.90
27306;DHT22;14792;50.886;6.468;2022-09-17T17:56:43;12.90;99.90
27306;DHT22;14792;50.886;6.468;2022-09-17T17:59:45;12.80;99.90
27306;DHT22;14792;50.886;6.468;2022-09-17T18:02:48;12.80;99.90
27306;DHT22;14792;50.886;6.468;2022-09-17T18:05:48;12.80;99.90
27306;DHT22;14792;50.886;6.468;2022-09-17T18:08:50;12.70;99.90
27306;DHT22;14792;50.886;6.468;2022-09-17T18:11:51;12.70;99.90
27306;DHT22;14792;50.886;6.468;2022-09-17T18:14:53;12.70;99.90
27306;DHT22;14792;50.886;6.468;2022-09-17T18:17:54;12.70;99.90
27306;DHT22;14792;50.886;6.468;2022-09-17T18:20:59;12.60;99.90
27306;DHT22;14792;50.886;6.468;2022-09-17T18:23:57;12.60;99.90
27306;DHT22;14792;50.886;6.468;2022-09-17T18:26:59;12.50;99.90
27306;DHT22;14792;50.886;6.468;2022-09-17T18:30:01;12.50;99.90
27306;DHT22;14792;50.886;6.468;2022-09-17T18:33:02;12.40;99.90
27306;DHT22;14792;50.886;6.468;2022-09-17T18:36:04;12.40;99.90
27306;DHT22;14792;50.886;6.468;2022-09-17T18:39:06;12.40;99.90
27306;DHT22;14792;50.886;6.468;2022-09-17T18:42:07;12.40;99.90
27306;DHT22;14792;50.886;6.468;2022-09-17T18:45:09;12.40;99.90
27306;DHT22;14792;50.886;6.468;2022-09-17T18:48:10;12.40;99.90
27306;DHT22;14792;50.886;6.468;2022-09-17T18:51:12;12.40;99.90
27306;DHT22;14792;50.886;6.468;2022-09-17T18:54:13;12.40;99.90
27306;DHT22;14792;50.886;6.468;2022-09-17T18:57:15;12.40;99.90
27306;DHT22;14792;50.886;6.468;2022-09-17T19:00:17;12.40;99.90
27306;DHT22;14792;50.886;6.468;2022-09-17T19:03:18;12.30;99.90
27306;DHT22;14792;50.886;6.468;2022-09-17T19:06:20;12.30;99.90
27306;DHT22;14792;50.886;6.468;2022-09-17T19:09:21;12.30;99.90
27306;DHT22;14792;50.886;6.468;2022-09-17T19:12:23;12.30;99.90
27306;DHT22;14792;50.886;6.468;2022-09-17T19:15:24;12.30;99.90
27306;DHT22;14792;50.886;6.468;2022-09-17T19:18:26;12.20;99.90
27306;DHT22;14792;50.886;6.468;2022-09-17T19:21:28;12.20;99.90
27306;DHT22;14792;50.886;6.468;2022-09-17T19:24:29;12.10;99.90
27306;DHT22;14792;50.886;6.468;2022-09-17T19:27:31;12.10;99.90
27306;DHT22;14792;50.886;6.468;2022-09-17T19:30:33;12.00;99.90
27306;DHT22;14792;50.886;6.468;2022-09-17T19:33:34;12.10;99.90
27306;DHT22;14792;50.886;6.468;2022-09-17T19:36:36;12.00;99.90
27306;DHT22;14792;50.886;6.468;2022-09-17T19:39:37;12.00;99.90
27306;DHT22;14792;50.886;6.468;2022-09-17T19:42:39;12.00;99.90
27306;DHT22;14792;50.886;6.468;2022-09-17T19:45:40;12.10;99.90
27306;DHT22;14792;50.886;6.468;2022-09-17T19:48:54;12.10;99.90
27306;DHT22;14792;50.886;6.468;2022-09-17T19:51:55;12.10;99.90
27306;DHT22;14792;50.886;6.468;2022-09-17T19:54:57;12.10;99.90
27306;DHT22;14792;50.886;6.468;2022-09-17T19:57:58;12.10;99.90
27306;DHT22;14792;50.886;6.468;2022-09-17T20:01:00;12.10;99.90
27306;DHT22;14792;50.886;6.468;2022-09-17T20:04:02;12.10;99.90
27306;DHT22;14792;50.886;6.468;2022-09-17T20:07:03;12.10;99.90
27306;DHT22;14792;50.886;6.468;2022-09-17T20:10:05;12.20;99.90
27306;DHT22;14792;50.886;6.468;2022-09-17T20:13:06;12.10;99.90
27306;DHT22;14792;50.886;6.468;2022-09-17T20:16:12;12.20;99.90
27306;DHT22;14792;50.886;6.468;2022-09-17T20:19:13;12.20;99.90
27306;DHT22;14792;50.886;6.468;2022-09-17T20:22:14;12.20;99.90
27306;DHT22;14792;50.886;6.468;2022-09-17T20:25:16;12.20;99.90
27306;DHT22;14792;50.886;6.468;2022-09-17T20:28:17;12.20;99.90
27306;DHT22;14792;50.886;6.468;2022-09-17T20:31:20;12.10;99.90
27306;DHT22;14792;50.886;6.468;2022-09-17T20:34:21;12.10;99.90
27306;DHT22;14792;50.886;6.468;2022-09-17T20:37:22;12.10;99.90
27306;DHT22;14792;50.886;6.468;2022-09-17T20:40:24;12.10;99.90
27306;DHT22;14792;50.886;6.468;2022-09-17T20:43:25;12.10;99.90
27306;DHT22;14792;50.886;6.468;2022-09-17T20:46:27;12.00;99.90
27306;DHT22;14792;50.886;6.468;2022-09-17T20:49:28;12.00;99.90
27306;DHT22;14792;50.886;6.468;2022-09-17T20:52:30;12.00;99.90
27306;DHT22;14792;50.886;6.468;2022-09-17T20:55:32;11.90;99.90
27306;DHT22;14792;50.886;6.468;2022-09-17T20:58:34;11.80;99.90
27306;DHT22;14792;50.886;6.468;2022-09-17T21:01:35;11.80;99.90
27306;DHT22;14792;50.886;6.468;2022-09-17T21:04:36;11.80;99.90
27306;DHT22;14792;50.886;6.468;2022-09-17T21:07:38;11.80;99.90
27306;DHT22;14792;50.886;6.468;2022-09-17T21:10:43;11.80;99.90
27306;DHT22;14792;50.886;6.468;2022-09-17T21:13:44;11.80;99.90
27306;DHT22;14792;50.886;6.468;2022-09-17T21:16:46;11.70;99.90
27306;DHT22;14792;50.886;6.468;2022-09-17T21:19:47;11.70;99.90
27306;DHT22;14792;50.886;6.468;2022-09-17T21:22:49;11.70;99.90
27306;DHT22;14792;50.886;6.468;2022-09-17T21:25:51;11.60;99.90
27306;DHT22;14792;50.886;6.468;2022-09-17T21:28:53;11.60;99.90
27306;DHT22;14792;50.886;6.468;2022-09-17T21:31:54;11.60;99.90
27306;DHT22;14792;50.886;6.468;2022-09-17T21:34:55;11.50;99.90